createdAt,value
2019-03-05T00:02:06.935Z,97274.50
2019-03-05T00:04:40.089Z,97274.78
2019-03-05T00:07:11.592Z,97275.59
2019-03-05T00:09:42.756Z,97264.83
2019-03-05T00:12:15.549Z,97272.35
2019-03-05T00:14:47.155Z,97263.23
2019-03-05T00:17:19.503Z,97247.91
2019-03-05T00:19:51.872Z,97252.22
2019-03-05T00:22:23.238Z,97258.10
2019-03-05T00:25:02.161Z,97251.41
2019-03-05T00:27:35.843Z,97241.20
2019-03-05T00:30:32.770Z,97241.99
2019-03-05T00:33:08.436Z,97236.37
2019-03-05T00:35:59.054Z,97224.53
2019-03-05T00:38:49.895Z,97231.25
2019-03-05T00:41:33.154Z,97231.77
2019-03-05T00:44:17.318Z,97237.42
2019-03-05T00:47:03.217Z,97240.91
2019-03-05T00:49:46.837Z,97240.91
2019-03-05T00:52:21.803Z,97238.51
2019-03-05T00:55:03.753Z,97238.49
2019-03-05T00:57:43.718Z,97233.39
2019-03-05T01:00:24.491Z,97232.03
2019-03-05T01:03:00.092Z,97233.64
2019-03-05T01:05:45.828Z,97224.53
2019-03-05T01:08:21.679Z,97208.94
2019-03-05T01:10:54.825Z,97208.12
2019-03-05T01:13:27.611Z,97200.34
2019-03-05T01:16:00.485Z,97200.34
2019-03-05T01:18:31.761Z,97207.06
2019-03-05T01:21:04.869Z,97201.13
2019-03-05T01:23:40.371Z,97195.77
2019-03-05T01:26:11.745Z,97188.25
2019-03-05T01:28:42.871Z,97191.73
2019-03-05T01:31:21.982Z,97190.92
2019-03-05T01:33:57.724Z,97181.51
2019-03-05T01:36:30.482Z,97187.68
2019-03-05T01:39:03.254Z,97184.45
2019-03-05T01:41:36.160Z,97190.92
2019-03-05T01:44:08.146Z,97177.45
2019-03-05T01:46:39.366Z,97184.47
2019-03-05T01:49:10.509Z,97182.33
2019-03-05T01:51:41.767Z,97172.91
2019-03-05T01:54:12.926Z,97173.98
2019-03-05T01:56:44.265Z,97171.30
2019-03-05T01:59:15.510Z,97167.26
2019-03-05T02:01:46.769Z,97161.06
2019-03-05T02:04:17.988Z,97156.22
2019-03-05T02:06:49.165Z,97154.62
2019-03-05T02:09:20.300Z,97156.23
2019-03-05T02:11:51.473Z,97158.67
2019-03-05T02:14:22.575Z,97148.98
2019-03-05T02:16:53.791Z,97149.78
2019-03-05T02:19:37.137Z,97144.38
2019-03-05T02:22:11.748Z,97144.64
2019-03-05T02:25:04.035Z,97149.45
2019-03-05T02:27:41.188Z,97137.11
2019-03-05T02:30:36.014Z,97128.80
2019-03-05T02:33:43.612Z,97130.91
2019-03-05T02:36:18.018Z,97129.84
2019-03-05T02:39:15.712Z,97127.44
2019-03-05T02:41:52.529Z,97124.72
2019-03-05T02:44:26.948Z,97116.41
2019-03-05T02:47:09.886Z,97127.14
2019-03-05T02:49:51.060Z,97124.48
2019-03-05T02:52:32.108Z,97120.98
2019-03-05T02:55:15.011Z,97117.21
2019-03-05T02:57:45.167Z,97108.33
2019-03-05T03:00:17.947Z,97096.76
2019-03-05T03:02:53.360Z,97098.89
2019-03-05T03:05:27.151Z,97093.54
2019-03-05T03:07:59.923Z,97098.13
2019-03-05T03:10:31.489Z,97085.50
2019-03-05T03:13:02.848Z,97085.23
2019-03-05T03:15:34.001Z,97095.72
2019-03-05T03:18:05.229Z,97077.45
2019-03-05T03:20:36.417Z,97090.64
2019-03-05T03:23:09.401Z,97087.95
2019-03-05T03:25:42.698Z,97088.47
2019-03-05T03:28:15.145Z,97085.52
2019-03-05T03:30:46.473Z,97082.59
2019-03-05T03:33:17.812Z,97076.67
2019-03-05T03:35:49.042Z,97075.88
2019-03-05T03:38:20.226Z,97074.51
2019-03-05T03:40:51.497Z,97071.58
2019-03-05T03:43:22.681Z,97077.50
2019-03-05T03:45:53.880Z,97072.66
2019-03-05T03:48:25.075Z,97068.10
2019-03-05T03:50:56.395Z,97064.33
2019-03-05T03:53:29.726Z,97062.70
2019-03-05T03:56:01.059Z,97054.61
2019-03-05T03:58:32.302Z,97051.92
2019-03-05T04:01:46.841Z,97048.42
2019-03-05T04:04:18.021Z,97043.33
2019-03-05T04:06:49.243Z,97038.51
2019-03-05T04:09:20.903Z,97032.61
2019-03-05T04:11:52.877Z,97037.69
2019-03-05T04:14:24.145Z,97030.47
2019-03-05T04:16:55.323Z,97026.97
2019-03-05T04:19:28.114Z,97025.89
2019-03-05T04:21:59.362Z,97021.59
2019-03-05T04:24:30.579Z,97017.34
2019-03-05T04:27:01.788Z,97016.50
2019-03-05T04:29:33.260Z,97018.98
2019-03-05T04:32:05.833Z,97011.45
2019-03-05T04:34:36.962Z,97005.52
2019-03-05T04:37:09.718Z,97005.55
2019-03-05T04:39:40.969Z,97001.48
2019-03-05T04:42:12.168Z,96991.29
2019-03-05T04:44:45.006Z,96978.67
2019-03-05T04:47:17.198Z,96982.70
2019-03-05T04:49:49.992Z,96992.40
2019-03-05T04:52:22.363Z,96996.95
2019-03-05T04:54:53.498Z,97010.68
2019-03-05T04:57:24.789Z,97018.98
2019-03-05T04:59:58.229Z,97012.00
2019-03-05T05:02:30.701Z,97010.63
2019-03-05T05:05:01.872Z,97002.30
2019-03-05T05:07:34.074Z,97004.20
2019-03-05T05:10:07.136Z,97000.17
2019-03-05T05:12:38.322Z,97006.89
2019-03-05T05:15:21.322Z,96992.38
2019-03-05T05:17:52.539Z,96990.73
2019-03-05T05:20:23.735Z,96994.19
2019-03-05T05:22:54.920Z,96994.48
2019-03-05T05:25:27.124Z,96993.95
2019-03-05T05:27:57.784Z,96995.30
2019-03-05T05:30:34.376Z,96985.08
2019-03-05T05:33:07.317Z,96972.45
2019-03-05T05:35:38.508Z,96975.41
2019-03-05T05:38:11.220Z,96979.14
2019-03-05T05:40:46.148Z,96972.95
2019-03-05T05:43:25.718Z,96973.48
2019-03-05T05:45:56.887Z,96964.30
2019-03-05T05:48:28.086Z,96963.81
2019-03-05T05:50:59.292Z,96961.61
2019-03-05T05:53:31.118Z,96961.31
2019-03-05T05:56:02.364Z,96955.56
2019-03-05T05:58:33.761Z,96955.56
2019-03-05T06:01:06.869Z,96950.70
2019-03-05T06:03:38.134Z,96949.02
2019-03-05T06:06:09.273Z,96945.67
2019-03-05T06:08:41.486Z,96947.53
2019-03-05T06:11:12.639Z,96943.51
2019-03-05T06:13:45.553Z,96938.12
2019-03-05T06:16:16.634Z,96927.05
2019-03-05T06:18:47.843Z,96940.97
2019-03-05T06:21:19.065Z,96950.86
2019-03-05T06:23:50.351Z,96940.56
2019-03-05T06:26:21.557Z,96933.81
2019-03-05T06:28:53.433Z,96962.81
2019-03-05T06:31:24.690Z,96951.94
2019-03-05T06:33:55.888Z,96957.38
2019-03-05T06:36:27.119Z,96952.87
2019-03-05T06:38:58.376Z,96949.59
2019-03-05T06:41:29.623Z,96934.86
2019-03-05T06:44:02.301Z,96941.00
2019-03-05T06:46:34.746Z,96934.75
2019-03-05T06:49:05.991Z,96939.86
2019-03-05T06:51:37.089Z,96933.85
2019-03-05T06:54:08.316Z,96934.94
2019-03-05T06:56:39.606Z,96929.16
2019-03-05T06:59:10.953Z,96934.93
2019-03-05T07:01:42.296Z,96946.04
2019-03-05T07:04:16.324Z,96969.16
2019-03-05T07:06:49.583Z,96941.84
2019-03-05T07:09:32.707Z,96960.70
2019-03-05T07:12:14.482Z,96957.58
2019-03-05T07:15:20.463Z,96962.28
2019-03-05T07:17:54.845Z,96948.66
2019-03-05T07:20:44.356Z,96951.39
2019-03-05T07:23:30.341Z,96947.52
2019-03-05T07:26:01.702Z,96937.56
2019-03-05T07:28:34.887Z,96945.63
2019-03-05T07:31:06.701Z,96944.56
2019-03-05T07:33:39.951Z,96941.68
2019-03-05T07:36:11.196Z,96926.48
2019-03-05T07:38:42.401Z,96921.97
2019-03-05T07:41:13.642Z,96933.17
2019-03-05T07:43:44.811Z,96932.22
2019-03-05T07:46:17.929Z,96925.69
2019-03-05T07:48:49.112Z,96917.30
2019-03-05T07:51:20.324Z,96910.77
2019-03-05T07:54:59.251Z,96915.47
2019-03-05T07:57:30.589Z,96902.23
2019-03-05T08:00:01.808Z,96907.84
2019-03-05T08:02:37.213Z,96887.16
2019-03-05T08:05:11.538Z,96880.99
2019-03-05T08:07:44.447Z,96874.20
2019-03-05T08:10:25.301Z,96869.59
2019-03-05T08:13:12.049Z,96869.70
2019-03-05T08:16:13.493Z,96868.61
2019-03-05T08:18:44.855Z,96879.98
2019-03-05T08:21:16.633Z,96918.34
2019-03-05T08:23:48.547Z,96928.05
2019-03-05T08:26:22.348Z,96921.81
2019-03-05T08:28:55.258Z,96920.00
2019-03-05T08:31:26.438Z,96910.62
2019-03-05T08:33:57.730Z,96910.95
2019-03-05T08:36:29.523Z,96917.31
2019-03-05T08:39:03.137Z,96917.80
2019-03-05T08:41:35.999Z,96919.06
2019-03-05T08:44:07.441Z,96919.88
2019-03-05T08:46:39.713Z,96919.89
2019-03-05T08:49:11.472Z,96922.06
2019-03-05T08:51:44.194Z,96927.46
2019-03-05T08:54:16.364Z,96925.20
2019-03-05T08:56:48.276Z,96931.28
2019-03-05T08:59:19.680Z,96932.19
2019-03-05T09:01:51.896Z,96928.98
2019-03-05T09:04:24.151Z,96932.80
2019-03-05T09:06:55.410Z,96941.20
2019-03-05T09:09:28.883Z,96940.42
2019-03-05T09:12:00.882Z,96944.42
2019-03-05T09:14:34.320Z,96949.19
2019-03-05T09:17:06.500Z,96953.52
2019-03-05T09:19:37.588Z,96960.46
2019-03-05T09:22:09.801Z,96970.13
2019-03-05T09:24:41.009Z,96969.60
2019-03-05T09:27:12.156Z,96974.67
2019-03-05T09:29:44.615Z,96973.22
2019-03-05T09:32:16.049Z,96982.80
2019-03-05T09:34:49.122Z,96981.13
2019-03-05T09:37:20.414Z,96989.75
2019-03-05T09:39:51.882Z,96996.72
2019-03-05T09:42:23.411Z,96995.17
2019-03-05T09:44:54.693Z,96999.19
2019-03-05T09:47:25.947Z,97003.48
2019-03-05T09:49:57.325Z,96997.75
2019-03-05T09:52:28.509Z,97007.84
2019-03-05T09:54:59.809Z,97007.18
2019-03-05T09:57:31.020Z,97017.25
2019-03-05T10:00:02.230Z,97016.70
2019-03-05T10:02:34.191Z,97025.08
2019-03-05T10:05:08.567Z,97037.41
2019-03-05T10:07:39.809Z,97038.23
2019-03-05T10:10:19.286Z,97042.26
2019-03-05T10:12:50.451Z,97046.25
2019-03-05T10:15:22.845Z,97048.50
2019-03-05T10:17:55.082Z,97039.66
2019-03-05T10:20:33.055Z,97034.63
2019-03-05T10:23:05.913Z,97036.09
2019-03-05T10:25:37.084Z,97047.20
2019-03-05T10:28:08.569Z,97051.11
2019-03-05T10:30:45.566Z,97045.61
2019-03-05T10:33:18.242Z,97042.39
2019-03-05T10:35:49.525Z,97044.65
2019-03-05T10:38:20.923Z,97042.42
2019-03-05T10:40:56.730Z,97049.13
2019-03-05T10:43:28.718Z,97043.80
2019-03-05T10:46:07.133Z,97042.72
2019-03-05T10:48:39.347Z,97050.23
2019-03-05T10:51:12.515Z,97050.52
2019-03-05T10:53:46.521Z,97048.09
2019-03-05T10:56:17.909Z,97051.90
2019-03-05T10:58:49.460Z,97060.80
2019-03-05T11:01:21.807Z,97065.94
2019-03-05T11:03:52.960Z,97067.85
2019-03-05T11:06:24.129Z,97067.34
2019-03-05T11:08:56.590Z,97060.88
2019-03-05T11:11:28.047Z,97067.30
2019-03-05T11:13:59.636Z,97074.53
2019-03-05T11:16:31.350Z,97083.86
2019-03-05T11:19:02.486Z,97081.75
2019-03-05T11:21:33.592Z,97086.89
2019-03-05T11:24:04.816Z,97079.64
2019-03-05T11:26:36.165Z,97081.52
2019-03-05T11:29:07.362Z,97083.89
2019-03-05T11:31:38.622Z,97081.18
2019-03-05T11:34:09.989Z,97082.26
2019-03-05T11:36:41.208Z,97080.63
2019-03-05T11:39:13.087Z,97105.59
2019-03-05T11:41:44.384Z,97101.50
2019-03-05T11:44:16.713Z,97112.47
2019-03-05T11:46:47.902Z,97108.84
2019-03-05T11:49:19.073Z,97103.73
2019-03-05T11:51:50.176Z,97112.16
2019-03-05T11:54:21.332Z,97121.32
2019-03-05T11:56:52.592Z,97127.98
2019-03-05T11:59:23.691Z,97127.72
2019-03-05T12:01:54.120Z,97125.81
2019-03-05T12:04:25.199Z,97139.53
2019-03-05T12:06:56.343Z,97143.05
2019-03-05T12:09:27.753Z,97140.52
2019-03-05T12:12:00.540Z,97145.37
2019-03-05T12:14:33.165Z,97154.12
2019-03-05T12:17:04.343Z,97150.56
2019-03-05T12:19:35.401Z,97159.20
2019-03-05T12:22:05.841Z,97160.21
2019-03-05T12:24:36.929Z,97167.80
2019-03-05T12:27:10.218Z,97173.06
2019-03-05T12:29:41.489Z,97171.32
2019-03-05T12:32:15.179Z,97178.45
2019-03-05T12:34:45.639Z,97168.63
2019-03-05T12:37:16.791Z,97160.16
2019-03-05T12:39:47.313Z,97190.14
2019-03-05T12:42:19.978Z,97195.59
2019-03-05T12:44:53.085Z,97199.11
2019-03-05T12:47:29.817Z,97198.02
2019-03-05T12:50:00.978Z,97202.55
2019-03-05T12:52:34.386Z,97207.64
2019-03-05T12:55:08.357Z,97213.81
2019-03-05T12:57:39.515Z,97225.66
2019-03-05T13:00:24.484Z,97230.67
2019-03-05T13:02:55.860Z,97225.33
2019-03-05T13:05:27.109Z,97229.84
2019-03-05T13:07:58.708Z,97232.80
2019-03-05T13:10:36.042Z,97238.12
2019-03-05T13:13:04.842Z,97236.56
2019-03-05T13:15:42.937Z,97237.36
2019-03-05T13:18:14.508Z,97240.83
2019-03-05T13:20:45.919Z,97236.89
2019-03-05T13:23:17.071Z,97246.12
2019-03-05T13:25:48.278Z,97244.77
2019-03-05T13:28:20.954Z,97258.82
2019-03-05T13:30:55.296Z,97270.23
2019-03-05T13:33:28.855Z,97282.41
2019-03-05T13:36:00.027Z,97287.49
2019-03-05T13:38:31.325Z,97283.97
2019-03-05T13:41:03.915Z,97285.53
2019-03-05T13:46:07.774Z,97289.38
2019-03-05T13:48:57.795Z,97277.61
2019-03-05T13:51:59.595Z,97284.00
2019-03-05T13:55:40.342Z,97293.13
2019-03-05T13:58:14.878Z,97300.97
2019-03-05T14:00:46.005Z,97302.08
2019-03-05T14:03:21.598Z,97307.23
2019-03-05T14:05:56.054Z,97314.20
2019-03-05T14:08:33.269Z,97315.25
2019-03-05T14:11:04.406Z,97314.45
2019-03-05T14:13:35.663Z,97317.93
2019-03-05T14:16:08.173Z,97313.32
2019-03-05T14:18:42.192Z,97316.55
2019-03-05T14:21:13.220Z,97320.55
2019-03-05T14:23:43.677Z,97320.27
2019-03-05T14:26:14.976Z,97330.76
2019-03-05T14:28:46.148Z,97331.58
2019-03-05T14:31:17.408Z,97331.55
2019-03-05T14:33:50.491Z,97334.50
2019-03-05T14:36:21.750Z,97338.77
2019-03-05T14:38:53.990Z,97344.65
2019-03-05T14:41:25.266Z,97339.76
2019-03-05T14:43:56.493Z,97349.69
2019-03-05T14:46:27.557Z,97342.16
2019-03-05T14:48:58.723Z,97349.58
2019-03-05T14:51:29.841Z,97350.94
2019-03-05T14:54:01.082Z,97355.86
2019-03-05T14:56:32.965Z,97364.45
2019-03-05T14:59:05.131Z,97363.09
2019-03-05T15:01:36.349Z,97361.48
2019-03-05T15:04:07.957Z,97370.63
2019-03-05T15:06:40.799Z,97367.92
2019-03-05T15:09:13.714Z,97374.96
2019-03-05T15:11:45.210Z,97376.05
2019-03-05T15:14:16.533Z,97380.47
2019-03-05T15:16:49.350Z,97385.30
2019-03-05T15:19:21.799Z,97393.66
2019-03-05T15:21:54.556Z,97384.55
2019-03-05T15:24:27.252Z,97398.04
2019-03-05T15:26:58.423Z,97398.88
2019-03-05T15:29:29.594Z,97406.45
2019-03-05T15:33:08.450Z,97401.63
2019-03-05T15:35:39.559Z,97407.81
2019-03-05T15:38:10.670Z,97414.30
2019-03-05T15:40:41.280Z,97419.69
2019-03-05T15:43:13.439Z,97424.27
2019-03-05T15:45:44.552Z,97428.03
2019-03-05T15:48:15.720Z,97420.79
2019-03-05T15:50:46.923Z,97434.77
2019-03-05T15:53:18.152Z,97434.22
2019-03-05T15:55:49.290Z,97438.26
2019-03-05T15:58:20.423Z,97434.49
2019-03-05T16:00:51.593Z,97451.42
2019-03-05T16:03:24.364Z,97455.73
2019-03-05T16:05:57.759Z,97453.86
2019-03-05T16:08:36.395Z,97453.58
2019-03-05T16:11:07.592Z,97456.00
2019-03-05T16:13:39.024Z,97455.73
2019-03-05T16:16:10.284Z,97459.76
2019-03-05T16:18:41.751Z,97461.89
2019-03-05T16:21:13.072Z,97464.84
2019-03-05T16:23:44.212Z,97475.59
2019-03-05T16:26:15.542Z,97476.39
2019-03-05T16:28:46.643Z,97480.70
2019-03-05T16:31:22.127Z,97486.61
2019-03-05T16:34:01.718Z,97490.39
2019-03-05T16:36:41.396Z,97493.33
2019-03-05T16:39:14.373Z,97488.77
2019-03-05T16:41:47.711Z,97492.52
2019-03-05T16:44:25.658Z,97493.63
2019-03-05T16:47:14.569Z,97504.36
2019-03-05T16:49:47.407Z,97504.34
2019-03-05T16:52:25.941Z,97500.04
2019-03-05T16:54:58.698Z,97507.03
2019-03-05T16:57:47.479Z,97511.28
2019-03-05T17:00:26.328Z,97516.63
2019-03-05T17:03:07.584Z,97522.55
2019-03-05T17:05:46.185Z,97523.05
2019-03-05T17:08:24.661Z,97528.41
2019-03-05T17:11:06.633Z,97528.41
2019-03-05T17:13:37.897Z,97520.64
2019-03-05T17:16:08.897Z,97528.39
2019-03-05T17:18:40.628Z,97524.31
2019-03-05T17:21:11.957Z,97530.51
2019-03-05T17:23:44.274Z,97527.87
2019-03-05T17:26:15.657Z,97534.83
2019-03-05T17:28:49.695Z,97533.71
2019-03-05T17:31:20.972Z,97536.92
2019-03-05T17:33:52.152Z,97531.02
2019-03-05T17:36:23.328Z,97540.38
2019-03-05T17:38:56.032Z,97541.52
2019-03-05T17:41:27.379Z,97536.74
2019-03-05T17:43:58.875Z,97541.52
2019-03-05T17:46:30.113Z,97538.80
2019-03-05T17:49:04.961Z,97548.99
2019-03-05T17:51:40.767Z,97548.70
2019-03-05T17:54:16.074Z,97554.64
2019-03-05T17:56:48.347Z,97571.00
2019-03-05T17:59:19.416Z,97563.52
2019-03-05T18:01:51.164Z,97571.27
2019-03-05T18:04:25.380Z,97568.06
2019-03-05T18:06:56.509Z,97577.44
2019-03-05T18:09:28.506Z,97579.83
2019-03-05T18:12:01.420Z,97588.12
2019-03-05T18:14:33.822Z,97592.13
2019-03-05T18:17:05.016Z,97590.45
2019-03-05T18:19:36.586Z,97588.59
2019-03-05T18:22:07.714Z,97597.92
2019-03-05T18:24:38.988Z,97604.21
2019-03-05T18:27:10.284Z,97606.56
2019-03-05T18:29:41.812Z,97603.84
2019-03-05T18:32:13.095Z,97607.59
2019-03-05T18:34:44.427Z,97610.31
2019-03-05T18:37:15.846Z,97613.78
2019-03-05T18:39:47.115Z,97615.92
2019-03-05T18:42:17.861Z,97615.92
2019-03-05T18:44:51.482Z,97615.61
2019-03-05T18:47:22.681Z,97615.89
2019-03-05T18:49:54.257Z,97622.87
2019-03-05T18:52:25.504Z,97617.20
2019-03-05T18:54:56.005Z,97617.44
2019-03-05T18:57:27.374Z,97616.95
2019-03-05T18:59:58.522Z,97621.77
2019-03-05T19:02:29.719Z,97630.34
2019-03-05T19:05:00.930Z,97621.15
2019-03-05T19:07:32.139Z,97624.11
2019-03-05T19:10:03.563Z,97619.02
2019-03-05T19:12:35.220Z,97622.49
2019-03-05T19:15:07.340Z,97619.77
2019-03-05T19:17:38.530Z,97617.40
2019-03-05T19:20:10.672Z,97616.81
2019-03-05T19:22:41.771Z,97621.66
2019-03-05T19:25:16.132Z,97618.98
2019-03-05T19:27:48.281Z,97622.14
2019-03-05T19:30:29.011Z,97614.64
2019-03-05T19:33:00.052Z,97623.95
2019-03-05T19:35:32.354Z,97617.76
2019-03-05T19:38:05.124Z,97614.56
2019-03-05T19:40:38.945Z,97625.81
2019-03-05T19:43:10.222Z,97622.30
2019-03-05T19:45:41.336Z,97624.98
2019-03-05T19:48:14.572Z,97628.81
2019-03-05T19:50:47.235Z,97626.91
2019-03-05T19:53:18.313Z,97626.41
2019-03-05T19:55:48.920Z,97631.25
2019-03-05T19:58:20.171Z,97630.94
2019-03-05T20:00:59.544Z,97637.13
2019-03-05T20:03:30.712Z,97639.83
2019-03-05T20:06:01.983Z,97647.08
2019-03-05T20:08:39.911Z,97647.23
2019-03-05T20:11:06.317Z,97648.81
2019-03-05T20:13:38.576Z,97648.27
2019-03-05T20:16:09.692Z,97645.84
2019-03-05T20:18:40.909Z,97645.57
2019-03-05T20:21:14.263Z,97651.62
2019-03-05T20:23:45.445Z,97648.38
2019-03-05T20:26:15.930Z,97647.27
2019-03-05T20:28:46.988Z,97653.94
2019-03-05T20:31:19.934Z,97644.78
2019-03-05T20:33:51.987Z,97639.92
2019-03-05T20:36:23.204Z,97636.14
2019-03-05T20:38:54.542Z,97638.54
2019-03-05T20:41:25.901Z,97548.58
2019-03-05T20:43:57.742Z,97633.84
2019-03-05T20:46:28.949Z,97642.16
2019-03-05T20:49:01.150Z,97647.33
2019-03-05T20:51:39.394Z,97645.58
2019-03-05T20:54:11.493Z,97652.55
2019-03-05T20:56:42.766Z,97651.13
2019-03-05T20:59:13.832Z,97650.33
2019-03-05T21:01:44.285Z,97651.39
2019-03-05T21:04:15.395Z,97647.05
2019-03-05T21:06:46.812Z,97665.20
2019-03-05T21:09:23.057Z,97661.91
2019-03-05T21:11:55.870Z,97670.18
2019-03-05T21:14:27.064Z,97681.70
2019-03-05T21:17:01.295Z,97673.86
2019-03-05T21:19:32.516Z,97682.41
2019-03-05T21:22:03.990Z,97653.66
2019-03-05T21:24:36.346Z,97698.09
2019-03-05T21:27:07.619Z,97694.08
2019-03-05T21:29:38.742Z,97691.80
2019-03-05T21:32:09.926Z,97702.23
2019-03-05T21:34:42.622Z,97708.07
2019-03-05T21:37:13.966Z,97703.11
2019-03-05T21:39:45.140Z,97721.63
2019-03-05T21:42:18.927Z,97721.56
2019-03-05T21:45:44.399Z,97712.91
2019-03-05T21:49:27.773Z,97713.66
2019-03-05T21:52:23.164Z,97723.42
2019-03-05T21:54:54.288Z,97731.44
2019-03-05T21:57:25.536Z,97734.27
2019-03-05T21:59:56.707Z,97737.92
2019-03-05T22:02:27.879Z,97740.60
2019-03-05T22:05:00.326Z,97745.59
2019-03-05T22:07:31.531Z,97740.73
2019-03-05T22:10:05.193Z,97751.81
2019-03-05T22:12:36.369Z,97746.52
2019-03-05T22:15:11.312Z,97745.37
2019-03-05T22:17:42.383Z,97754.20
2019-03-05T22:20:19.265Z,97763.01
2019-03-05T22:22:50.587Z,97763.77
2019-03-05T22:25:22.817Z,97700.69
2019-03-05T22:27:54.011Z,97773.42
2019-03-05T22:30:27.186Z,97778.02
2019-03-05T22:32:58.407Z,97770.89
2019-03-05T22:35:29.677Z,97774.08
2019-03-05T22:38:02.436Z,97788.52
2019-03-05T22:40:33.951Z,97794.76
2019-03-05T22:43:04.531Z,97785.41
2019-03-05T22:45:36.097Z,97794.64
2019-03-05T22:48:07.287Z,97791.14
2019-03-05T22:50:37.718Z,97788.72
2019-03-05T22:53:08.988Z,97801.56
2019-03-05T22:55:40.156Z,97804.02
2019-03-05T22:58:11.248Z,97809.03
2019-03-05T23:00:55.853Z,97796.47
2019-03-05T23:03:30.305Z,97816.91
2019-03-05T23:06:05.601Z,97801.33
2019-03-05T23:08:38.167Z,97812.61
2019-03-05T23:11:09.441Z,97816.40
2019-03-05T23:13:40.607Z,97818.45
2019-03-05T23:16:11.829Z,97817.97
2019-03-05T23:18:42.970Z,97823.00
2019-03-05T23:21:14.214Z,97824.56
2019-03-05T23:23:45.464Z,97831.71
2019-03-05T23:26:16.625Z,97828.50
2019-03-05T23:28:47.703Z,97820.55
2019-03-05T23:31:18.141Z,97830.78
2019-03-05T23:33:50.542Z,97831.06
2019-03-05T23:36:21.947Z,97826.40
2019-03-05T23:38:53.041Z,97829.94
2019-03-05T23:41:25.542Z,97835.48
2019-03-05T23:43:56.690Z,97833.26
2019-03-05T23:46:29.234Z,97836.25
2019-03-05T23:49:02.260Z,97838.67
2019-03-05T23:51:33.323Z,97842.80
2019-03-05T23:54:03.758Z,97840.44
2019-03-05T23:56:34.826Z,97845.84
2019-03-05T23:59:10.908Z,97837.53
